sensor_id;sensor_type;location;lat;lon;timestamp;temperature;humidity
6110;DHT22;3085;49.444;11.054;2024-03-06T00:01:54;7.60;99.90
6110;DHT22;3085;49.444;11.054;2024-03-06T00:04:21;7.60;99.90
6110;DHT22;3085;49.444;11.054;2024-03-06T00:06:48;7.60;99.90
6110;DHT22;3085;49.444;11.054;2024-03-06T00:09:17;7.60;99.90
6110;DHT22;3085;49.444;11.054;2024-03-06T00:11:44;7.60;99.90
6110;DHT22;3085;49.444;11.054;2024-03-06T00:14:10;7.60;99.90
6110;DHT22;3085;49.444;11.054;2024-03-06T00:16:39;7.60;99.90
6110;DHT22;3085;49.444;11.054;2024-03-06T00:19:05;7.70;99.90
6110;DHT22;3085;49.444;11.054;2024-03-06T00:21:32;7.70;99.90
6110;DHT22;3085;49.444;11.054;2024-03-06T00:23:59;7.80;99.90
6110;DHT22;3085;49.444;11.054;2024-03-06T00:26:25;7.80;99.90
6110;DHT22;3085;49.444;11.054;2024-03-06T00:28:52;7.90;99.90
6110;DHT22;3085;49.444;11.054;2024-03-06T00:31:19;7.80;99.90
6110;DHT22;3085;49.444;11.054;2024-03-06T00:33:47;7.80;99.90
6110;DHT22;3085;49.444;11.054;2024-03-06T00:36:13;7.80;99.90
6110;DHT22;3085;49.444;11.054;2024-03-06T00:38:40;7.80;99.90
6110;DHT22;3085;49.444;11.054;2024-03-06T00:41:07;7.80;99.90
6110;DHT22;3085;49.444;11.054;2024-03-06T00:43:34;7.90;99.90
6110;DHT22;3085;49.444;11.054;2024-03-06T00:46:00;7.80;99.90
6110;DHT22;3085;49.444;11.054;2024-03-06T00:48:27;7.80;99.90
6110;DHT22;3085;49.444;11.054;2024-03-06T00:50:55;7.80;99.90
6110;DHT22;3085;49.444;11.054;2024-03-06T00:53:22;7.80;99.90
6110;DHT22;3085;49.444;11.054;2024-03-06T00:55:49;7.80;99.90
6110;DHT22;3085;49.444;11.054;2024-03-06T00:58:16;7.70;99.90
6110;DHT22;3085;49.444;11.054;2024-03-06T01:00:43;7.70;99.90
6110;DHT22;3085;49.444;11.054;2024-03-06T01:03:09;7.70;99.90
6110;DHT22;3085;49.444;11.054;2024-03-06T01:05:36;7.70;99.90
6110;DHT22;3085;49.444;11.054;2024-03-06T01:08:05;7.70;99.90
6110;DHT22;3085;49.444;11.054;2024-03-06T01:10:31;7.80;99.90
6110;DHT22;3085;49.444;11.054;2024-03-06T01:12:58;7.70;99.90
6110;DHT22;3085;49.444;11.054;2024-03-06T01:15:25;7.70;99.90
6110;DHT22;3085;49.444;11.054;2024-03-06T01:17:51;7.70;99.90
6110;DHT22;3085;49.444;11.054;2024-03-06T01:20:18;7.70;99.90
6110;DHT22;3085;49.444;11.054;2024-03-06T01:22:45;7.60;99.90
6110;DHT22;3085;49.444;11.054;2024-03-06T01:25:13;7.60;99.90
6110;DHT22;3085;49.444;11.054;2024-03-06T01:27:40;7.70;99.90
6110;DHT22;3085;49.444;11.054;2024-03-06T01:30:07;7.80;99.90
6110;DHT22;3085;49.444;11.054;2024-03-06T01:32:34;7.80;99.90
6110;DHT22;3085;49.444;11.054;2024-03-06T01:35:02;7.70;99.90
6110;DHT22;3085;49.444;11.054;2024-03-06T01:37:30;7.80;99.90
6110;DHT22;3085;49.444;11.054;2024-03-06T01:39:57;7.70;99.90
6110;DHT22;3085;49.444;11.054;2024-03-06T01:42:25;7.80;99.90
6110;DHT22;3085;49.444;11.054;2024-03-06T01:44:51;7.90;99.90
6110;DHT22;3085;49.444;11.054;2024-03-06T01:47:18;7.90;99.90
6110;DHT22;3085;49.444;11.054;2024-03-06T01:49:45;7.80;99.90
6110;DHT22;3085;49.444;11.054;2024-03-06T01:52:14;7.80;99.90
6110;DHT22;3085;49.444;11.054;2024-03-06T01:54:42;7.80;99.90
6110;DHT22;3085;49.444;11.054;2024-03-06T01:57:11;7.80;99.90
6110;DHT22;3085;49.444;11.054;2024-03-06T01:59:40;7.70;99.90
6110;DHT22;3085;49.444;11.054;2024-03-06T02:02:08;7.70;99.90
6110;DHT22;3085;49.444;11.054;2024-03-06T02:04:36;7.80;99.90
6110;DHT22;3085;49.444;11.054;2024-03-06T02:07:04;7.60;99.90
6110;DHT22;3085;49.444;11.054;2024-03-06T02:09:35;7.50;99.90
6110;DHT22;3085;49.444;11.054;2024-03-06T02:12:02;7.50;99.90
6110;DHT22;3085;49.444;11.054;2024-03-06T02:14:29;7.40;99.90
6110;DHT22;3085;49.444;11.054;2024-03-06T02:16:57;7.40;99.90
6110;DHT22;3085;49.444;11.054;2024-03-06T02:19:23;7.40;99.90
6110;DHT22;3085;49.444;11.054;2024-03-06T02:21:53;7.40;99.90
6110;DHT22;3085;49.444;11.054;2024-03-06T02:24:20;7.40;99.90
6110;DHT22;3085;49.444;11.054;2024-03-06T02:26:46;7.40;99.90
6110;DHT22;3085;49.444;11.054;2024-03-06T02:29:13;7.40;99.90
6110;DHT22;3085;49.444;11.054;2024-03-06T02:31:40;7.40;99.90
6110;DHT22;3085;49.444;11.054;2024-03-06T02:34:07;7.40;99.90
6110;DHT22;3085;49.444;11.054;2024-03-06T02:36:34;7.50;99.90
6110;DHT22;3085;49.444;11.054;2024-03-06T02:39:02;7.40;99.90
6110;DHT22;3085;49.444;11.054;2024-03-06T02:41:34;7.40;99.90
6110;DHT22;3085;49.444;11.054;2024-03-06T02:44:01;7.50;99.90
6110;DHT22;3085;49.444;11.054;2024-03-06T02:46:28;7.50;99.90
6110;DHT22;3085;49.444;11.054;2024-03-06T02:48:55;7.40;99.90
6110;DHT22;3085;49.444;11.054;2024-03-06T02:51:22;7.40;99.90
6110;DHT22;3085;49.444;11.054;2024-03-06T02:53:48;7.50;99.90
6110;DHT22;3085;49.444;11.054;2024-03-06T02:56:19;7.50;99.90
6110;DHT22;3085;49.444;11.054;2024-03-06T02:58:46;7.50;99.90
6110;DHT22;3085;49.444;11.054;2024-03-06T03:01:13;7.40;99.90
6110;DHT22;3085;49.444;11.054;2024-03-06T03:03:40;7.40;99.90
6110;DHT22;3085;49.444;11.054;2024-03-06T03:06:07;7.30;99.90
6110;DHT22;3085;49.444;11.054;2024-03-06T03:08:34;7.30;99.90
6110;DHT22;3085;49.444;11.054;2024-03-06T03:11:02;7.30;99.90
6110;DHT22;3085;49.444;11.054;2024-03-06T03:13:30;7.30;99.90
6110;DHT22;3085;49.444;11.054;2024-03-06T03:15:57;7.50;99.90
6110;DHT22;3085;49.444;11.054;2024-03-06T03:18:24;7.30;99.90
6110;DHT22;3085;49.444;11.054;2024-03-06T03:20:50;7.20;99.90
6110;DHT22;3085;49.444;11.054;2024-03-06T03:23:17;7.30;99.90
6110;DHT22;3085;49.444;11.054;2024-03-06T03:25:47;7.20;99.90
6110;DHT22;3085;49.444;11.054;2024-03-06T03:28:14;7.20;99.90
6110;DHT22;3085;49.444;11.054;2024-03-06T03:30:44;7.20;99.90
6110;DHT22;3085;49.444;11.054;2024-03-06T03:33:11;7.20;99.90
6110;DHT22;3085;49.444;11.054;2024-03-06T03:35:37;7.20;99.90
6110;DHT22;3085;49.444;11.054;2024-03-06T03:38:04;7.30;99.90
6110;DHT22;3085;49.444;11.054;2024-03-06T03:40:31;7.20;99.90
6110;DHT22;3085;49.444;11.054;2024-03-06T03:42:58;7.30;99.90
6110;DHT22;3085;49.444;11.054;2024-03-06T03:45:31;7.30;99.90
6110;DHT22;3085;49.444;11.054;2024-03-06T03:47:59;7.20;99.90
6110;DHT22;3085;49.444;11.054;2024-03-06T03:50:28;7.20;99.90
6110;DHT22;3085;49.444;11.054;2024-03-06T03:52:54;7.20;99.90
6110;DHT22;3085;49.444;11.054;2024-03-06T03:55:23;7.20;99.90
6110;DHT22;3085;49.444;11.054;2024-03-06T03:57:50;7.20;99.90
6110;DHT22;3085;49.444;11.054;2024-03-06T04:00:17;7.20;99.90
6110;DHT22;3085;49.444;11.054;2024-03-06T04:02:44;7.10;99.90
6110;DHT22;3085;49.444;11.054;2024-03-06T04:05:12;7.10;99.90
6110;DHT22;3085;49.444;11.054;2024-03-06T04:07:38;7.10;99.90
6110;DHT22;3085;49.444;11.054;2024-03-06T04:10:06;7.10;99.90
6110;DHT22;3085;49.444;11.054;2024-03-06T04:12:36;7.20;99.90
6110;DHT22;3085;49.444;11.054;2024-03-06T04:15:04;7.10;99.90
6110;DHT22;3085;49.444;11.054;2024-03-06T04:17:30;7.10;99.90
6110;DHT22;3085;49.444;11.054;2024-03-06T04:19:57;7.10;99.90
6110;DHT22;3085;49.444;11.054;2024-03-06T04:22:25;7.10;99.90
6110;DHT22;3085;49.444;11.054;2024-03-06T04:24:52;7.10;99.90
6110;DHT22;3085;49.444;11.054;2024-03-06T04:27:20;7.10;99.90
6110;DHT22;3085;49.444;11.054;2024-03-06T04:29:47;7.10;99.90
6110;DHT22;3085;49.444;11.054;2024-03-06T04:32:13;7.10;99.90
6110;DHT22;3085;49.444;11.054;2024-03-06T04:34:40;7.10;99.90
6110;DHT22;3085;49.444;11.054;2024-03-06T04:37:07;7.10;99.90
6110;DHT22;3085;49.444;11.054;2024-03-06T04:39:35;7.10;99.90
6110;DHT22;3085;49.444;11.054;2024-03-06T04:42:01;7.20;99.90
6110;DHT22;3085;49.444;11.054;2024-03-06T04:44:28;7.20;99.90
6110;DHT22;3085;49.444;11.054;2024-03-06T04:46:55;7.20;99.90
6110;DHT22;3085;49.444;11.054;2024-03-06T04:49:21;7.30;99.90
6110;DHT22;3085;49.444;11.054;2024-03-06T04:51:48;7.20;99.90
6110;DHT22;3085;49.444;11.054;2024-03-06T04:54:15;7.30;99.90
6110;DHT22;3085;49.444;11.054;2024-03-06T04:56:43;7.20;99.90
6110;DHT22;3085;49.444;11.054;2024-03-06T04:59:09;7.20;99.90
6110;DHT22;3085;49.444;11.054;2024-03-06T05:01:36;7.20;99.90
6110;DHT22;3085;49.444;11.054;2024-03-06T05:04:02;7.30;99.90
6110;DHT22;3085;49.444;11.054;2024-03-06T05:06:29;7.30;99.90
6110;DHT22;3085;49.444;11.054;2024-03-06T05:08:56;7.30;99.90
6110;DHT22;3085;49.444;11.054;2024-03-06T05:11:23;7.30;99.90
6110;DHT22;3085;49.444;11.054;2024-03-06T05:13:51;7.20;99.90
6110;DHT22;3085;49.444;11.054;2024-03-06T05:16:17;7.30;99.90
6110;DHT22;3085;49.444;11.054;2024-03-06T05:18:44;7.20;99.90
6110;DHT22;3085;49.444;11.054;2024-03-06T05:21:11;7.20;99.90
6110;DHT22;3085;49.444;11.054;2024-03-06T05:23:38;7.20;99.90
6110;DHT22;3085;49.444;11.054;2024-03-06T05:26:04;7.20;99.90
6110;DHT22;3085;49.444;11.054;2024-03-06T05:28:31;7.20;99.90
6110;DHT22;3085;49.444;11.054;2024-03-06T05:30:59;7.20;99.90
6110;DHT22;3085;49.444;11.054;2024-03-06T05:33:27;7.20;99.90
6110;DHT22;3085;49.444;11.054;2024-03-06T05:35:55;7.20;99.90
6110;DHT22;3085;49.444;11.054;2024-03-06T05:38:22;7.20;99.90
6110;DHT22;3085;49.444;11.054;2024-03-06T05:40:48;7.20;99.90
6110;DHT22;3085;49.444;11.054;2024-03-06T05:43:15;7.10;99.90
6110;DHT22;3085;49.444;11.054;2024-03-06T05:45:42;7.10;99.90
6110;DHT22;3085;49.444;11.054;2024-03-06T05:48:10;7.20;99.90
6110;DHT22;3085;49.444;11.054;2024-03-06T05:50:36;7.10;99.90
6110;DHT22;3085;49.444;11.054;2024-03-06T05:53:04;7.20;99.90
6110;DHT22;3085;49.444;11.054;2024-03-06T05:55:31;7.20;99.90
6110;DHT22;3085;49.444;11.054;2024-03-06T05:57:57;7.20;99.90
6110;DHT22;3085;49.444;11.054;2024-03-06T06:00:24;7.30;99.90
6110;DHT22;3085;49.444;11.054;2024-03-06T06:02:51;7.30;99.90
6110;DHT22;3085;49.444;11.054;2024-03-06T06:05:19;7.30;99.90
6110;DHT22;3085;49.444;11.054;2024-03-06T06:07:48;7.30;99.90
6110;DHT22;3085;49.444;11.054;2024-03-06T06:10:15;7.40;99.90
6110;DHT22;3085;49.444;11.054;2024-03-06T06:12:42;7.40;99.90
6110;DHT22;3085;49.444;11.054;2024-03-06T06:15:09;7.30;99.90
6110;DHT22;3085;49.444;11.054;2024-03-06T06:17:36;7.30;99.90
6110;DHT22;3085;49.444;11.054;2024-03-06T06:20:06;7.30;99.90
6110;DHT22;3085;49.444;11.054;2024-03-06T06:22:40;7.30;99.90
6110;DHT22;3085;49.444;11.054;2024-03-06T06:25:07;7.40;99.90
6110;DHT22;3085;49.444;11.054;2024-03-06T06:27:35;7.40;99.90
6110;DHT22;3085;49.444;11.054;2024-03-06T06:30:02;7.50;99.90
6110;DHT22;3085;49.444;11.054;2024-03-06T06:32:29;7.50;99.90
6110;DHT22;3085;49.444;11.054;2024-03-06T06:34:56;7.50;99.90
6110;DHT22;3085;49.444;11.054;2024-03-06T06:37:23;7.40;99.90
6110;DHT22;3085;49.444;11.054;2024-03-06T06:39:51;7.50;99.90
6110;DHT22;3085;49.444;11.054;2024-03-06T06:42:18;7.50;99.90
6110;DHT22;3085;49.444;11.054;2024-03-06T06:44:45;7.50;99.90
6110;DHT22;3085;49.444;11.054;2024-03-06T06:47:12;7.50;99.90
6110;DHT22;3085;49.444;11.054;2024-03-06T06:49:38;7.50;99.90
6110;DHT22;3085;49.444;11.054;2024-03-06T06:52:05;7.50;99.90
6110;DHT22;3085;49.444;11.054;2024-03-06T06:54:32;7.50;99.90
6110;DHT22;3085;49.444;11.054;2024-03-06T06:57:00;7.50;99.90
6110;DHT22;3085;49.444;11.054;2024-03-06T06:59:28;7.50;99.90
6110;DHT22;3085;49.444;11.054;2024-03-06T07:01:55;7.60;99.90
6110;DHT22;3085;49.444;11.054;2024-03-06T07:04:22;7.50;99.90
6110;DHT22;3085;49.444;11.054;2024-03-06T07:06:50;7.60;99.90
6110;DHT22;3085;49.444;11.054;2024-03-06T07:09:16;7.60;99.90
6110;DHT22;3085;49.444;11.054;2024-03-06T07:11:44;7.70;99.90
6110;DHT22;3085;49.444;11.054;2024-03-06T07:14:12;7.70;99.90
6110;DHT22;3085;49.444;11.054;2024-03-06T07:16:41;7.70;99.90
6110;DHT22;3085;49.444;11.054;2024-03-06T07:19:09;7.80;99.90
6110;DHT22;3085;49.444;11.054;2024-03-06T07:21:35;7.80;99.90
6110;DHT22;3085;49.444;11.054;2024-03-06T07:24:03;7.80;99.90
6110;DHT22;3085;49.444;11.054;2024-03-06T07:26:31;7.80;99.90
6110;DHT22;3085;49.444;11.054;2024-03-06T07:28:58;7.80;99.90
6110;DHT22;3085;49.444;11.054;2024-03-06T07:31:26;7.90;99.90
6110;DHT22;3085;49.444;11.054;2024-03-06T07:33:53;7.90;99.90
6110;DHT22;3085;49.444;11.054;2024-03-06T07:36:20;7.80;99.90
6110;DHT22;3085;49.444;11.054;2024-03-06T07:38:47;7.80;99.90
6110;DHT22;3085;49.444;11.054;2024-03-06T07:41:14;7.80;99.90
6110;DHT22;3085;49.444;11.054;2024-03-06T07:43:41;7.80;99.90
6110;DHT22;3085;49.444;11.054;2024-03-06T07:46:07;7.80;99.90
6110;DHT22;3085;49.444;11.054;2024-03-06T07:48:37;7.90;99.90
6110;DHT22;3085;49.444;11.054;2024-03-06T07:51:04;7.90;99.90
6110;DHT22;3085;49.444;11.054;2024-03-06T07:53:31;7.90;99.90
6110;DHT22;3085;49.444;11.054;2024-03-06T07:55:58;7.90;99.90
6110;DHT22;3085;49.444;11.054;2024-03-06T07:58:24;8.00;99.90
6110;DHT22;3085;49.444;11.054;2024-03-06T08:00:52;8.10;99.90
6110;DHT22;3085;49.444;11.054;2024-03-06T08:03:21;8.20;99.90
6110;DHT22;3085;49.444;11.054;2024-03-06T08:05:51;8.20;99.90
6110;DHT22;3085;49.444;11.054;2024-03-06T08:08:17;8.20;99.90
6110;DHT22;3085;49.444;11.054;2024-03-06T08:10:44;8.30;99.90
6110;DHT22;3085;49.444;11.054;2024-03-06T08:13:11;8.30;99.90
6110;DHT22;3085;49.444;11.054;2024-03-06T08:15:38;8.30;99.90
6110;DHT22;3085;49.444;11.054;2024-03-06T08:18:06;8.50;99.90
6110;DHT22;3085;49.444;11.054;2024-03-06T08:20:32;8.40;99.90
6110;DHT22;3085;49.444;11.054;2024-03-06T08:23:00;8.50;99.90
6110;DHT22;3085;49.444;11.054;2024-03-06T08:25:27;8.50;99.90
6110;DHT22;3085;49.444;11.054;2024-03-06T08:27:54;8.50;99.90
6110;DHT22;3085;49.444;11.054;2024-03-06T08:30:22;8.50;99.90
6110;DHT22;3085;49.444;11.054;2024-03-06T08:32:48;8.50;99.90
6110;DHT22;3085;49.444;11.054;2024-03-06T08:35:16;8.50;99.90
6110;DHT22;3085;49.444;11.054;2024-03-06T08:37:45;8.50;99.90
6110;DHT22;3085;49.444;11.054;2024-03-06T08:40:13;8.60;99.90
6110;DHT22;3085;49.444;11.054;2024-03-06T08:42:41;8.70;99.90
6110;DHT22;3085;49.444;11.054;2024-03-06T08:45:08;8.60;99.90
6110;DHT22;3085;49.444;11.054;2024-03-06T08:47:35;8.60;99.90
6110;DHT22;3085;49.444;11.054;2024-03-06T08:50:02;8.60;99.90
6110;DHT22;3085;49.444;11.054;2024-03-06T08:52:28;8.60;99.90
6110;DHT22;3085;49.444;11.054;2024-03-06T08:54:56;8.50;99.90
6110;DHT22;3085;49.444;11.054;2024-03-06T08:57:24;8.60;99.90
6110;DHT22;3085;49.444;11.054;2024-03-06T08:59:53;8.70;99.90
6110;DHT22;3085;49.444;11.054;2024-03-06T09:02:20;8.80;99.90
6110;DHT22;3085;49.444;11.054;2024-03-06T09:04:47;8.70;99.90
6110;DHT22;3085;49.444;11.054;2024-03-06T09:07:14;8.70;99.90
6110;DHT22;3085;49.444;11.054;2024-03-06T09:09:40;8.70;99.90
6110;DHT22;3085;49.444;11.054;2024-03-06T09:12:09;8.60;99.90
6110;DHT22;3085;49.444;11.054;2024-03-06T09:14:38;8.70;99.90
6110;DHT22;3085;49.444;11.054;2024-03-06T09:17:05;8.70;99.90
6110;DHT22;3085;49.444;11.054;2024-03-06T09:19:32;8.70;99.90
6110;DHT22;3085;49.444;11.054;2024-03-06T09:21:59;8.70;99.90
6110;DHT22;3085;49.444;11.054;2024-03-06T09:24:26;8.80;99.90
6110;DHT22;3085;49.444;11.054;2024-03-06T09:26:53;8.80;99.90
6110;DHT22;3085;49.444;11.054;2024-03-06T09:29:20;8.90;99.90
6110;DHT22;3085;49.444;11.054;2024-03-06T09:31:48;8.90;99.90
6110;DHT22;3085;49.444;11.054;2024-03-06T09:34:15;9.00;99.90
6110;DHT22;3085;49.444;11.054;2024-03-06T09:36:46;8.90;99.90
6110;DHT22;3085;49.444;11.054;2024-03-06T09:39:14;9.00;99.90
6110;DHT22;3085;49.444;11.054;2024-03-06T09:41:42;9.10;99.90
6110;DHT22;3085;49.444;11.054;2024-03-06T09:44:09;9.20;99.90
6110;DHT22;3085;49.444;11.054;2024-03-06T09:46:36;9.30;99.90
6110;DHT22;3085;49.444;11.054;2024-03-06T09:49:05;9.40;99.90
6110;DHT22;3085;49.444;11.054;2024-03-06T09:51:34;9.30;99.90
6110;DHT22;3085;49.444;11.054;2024-03-06T09:54:02;9.30;99.90
6110;DHT22;3085;49.444;11.054;2024-03-06T09:56:29;9.30;99.90
6110;DHT22;3085;49.444;11.054;2024-03-06T09:58:56;9.40;99.90
6110;DHT22;3085;49.444;11.054;2024-03-06T10:01:23;9.40;99.90
6110;DHT22;3085;49.444;11.054;2024-03-06T10:03:52;9.30;99.90
6110;DHT22;3085;49.444;11.054;2024-03-06T10:06:20;9.50;99.90
6110;DHT22;3085;49.444;11.054;2024-03-06T10:08:46;9.60;99.90
6110;DHT22;3085;49.444;11.054;2024-03-06T10:11:15;9.60;99.90
6110;DHT22;3085;49.444;11.054;2024-03-06T10:13:42;9.60;99.90
6110;DHT22;3085;49.444;11.054;2024-03-06T10:16:09;9.70;99.90
6110;DHT22;3085;49.444;11.054;2024-03-06T10:18:36;9.70;99.90
6110;DHT22;3085;49.444;11.054;2024-03-06T10:21:04;9.70;99.90
6110;DHT22;3085;49.444;11.054;2024-03-06T10:23:34;9.70;99.90
6110;DHT22;3085;49.444;11.054;2024-03-06T10:26:02;9.70;99.90
6110;DHT22;3085;49.444;11.054;2024-03-06T10:28:29;9.70;99.90
6110;DHT22;3085;49.444;11.054;2024-03-06T10:31:03;9.80;99.90
6110;DHT22;3085;49.444;11.054;2024-03-06T10:33:31;9.80;99.90
6110;DHT22;3085;49.444;11.054;2024-03-06T10:35:58;9.90;99.90
6110;DHT22;3085;49.444;11.054;2024-03-06T10:38:27;9.90;99.90
6110;DHT22;3085;49.444;11.054;2024-03-06T10:41:00;9.90;99.90
6110;DHT22;3085;49.444;11.054;2024-03-06T10:43:28;9.80;99.90
6110;DHT22;3085;49.444;11.054;2024-03-06T10:46:00;9.90;99.90
6110;DHT22;3085;49.444;11.054;2024-03-06T10:48:29;9.90;99.90
6110;DHT22;3085;49.444;11.054;2024-03-06T10:50:57;10.00;99.90
6110;DHT22;3085;49.444;11.054;2024-03-06T10:53:26;10.00;99.90
6110;DHT22;3085;49.444;11.054;2024-03-06T10:55:53;10.00;99.90
6110;DHT22;3085;49.444;11.054;2024-03-06T10:58:22;10.00;99.90
6110;DHT22;3085;49.444;11.054;2024-03-06T11:00:53;10.10;99.90
6110;DHT22;3085;49.444;11.054;2024-03-06T11:03:23;10.20;99.90
6110;DHT22;3085;49.444;11.054;2024-03-06T11:05:52;10.20;99.90
6110;DHT22;3085;49.444;11.054;2024-03-06T11:08:18;10.10;99.90
6110;DHT22;3085;49.444;11.054;2024-03-06T11:10:46;10.10;99.90
6110;DHT22;3085;49.444;11.054;2024-03-06T11:13:23;10.10;99.90
6110;DHT22;3085;49.444;11.054;2024-03-06T11:15:52;10.20;99.90
6110;DHT22;3085;49.444;11.054;2024-03-06T11:18:41;10.20;99.90
6110;DHT22;3085;49.444;11.054;2024-03-06T11:21:29;10.20;99.90
6110;DHT22;3085;49.444;11.054;2024-03-06T11:24:13;10.20;99.90
6110;DHT22;3085;49.444;11.054;2024-03-06T11:26:42;10.20;99.90
6110;DHT22;3085;49.444;11.054;2024-03-06T11:29:13;10.30;99.90
6110;DHT22;3085;49.444;11.054;2024-03-06T11:32:02;10.30;99.90
6110;DHT22;3085;49.444;11.054;2024-03-06T11:34:32;10.30;99.90
6110;DHT22;3085;49.444;11.054;2024-03-06T11:36:58;10.20;99.90
6110;DHT22;3085;49.444;11.054;2024-03-06T11:39:28;10.30;99.90
6110;DHT22;3085;49.444;11.054;2024-03-06T11:41:56;10.30;99.90
6110;DHT22;3085;49.444;11.054;2024-03-06T11:44:24;10.30;99.90
6110;DHT22;3085;49.444;11.054;2024-03-06T11:46:58;10.30;99.90
6110;DHT22;3085;49.444;11.054;2024-03-06T11:49:26;10.30;99.90
6110;DHT22;3085;49.444;11.054;2024-03-06T11:51:55;10.30;99.90
6110;DHT22;3085;49.444;11.054;2024-03-06T11:54:23;10.30;99.90
6110;DHT22;3085;49.444;11.054;2024-03-06T11:56:54;10.20;99.90
6110;DHT22;3085;49.444;11.054;2024-03-06T11:59:21;10.10;99.90
6110;DHT22;3085;49.444;11.054;2024-03-06T12:01:50;10.20;99.90
6110;DHT22;3085;49.444;11.054;2024-03-06T12:04:18;10.10;99.90
6110;DHT22;3085;49.444;11.054;2024-03-06T12:06:45;10.10;99.90
6110;DHT22;3085;49.444;11.054;2024-03-06T12:09:12;10.10;99.90
6110;DHT22;3085;49.444;11.054;2024-03-06T12:11:39;10.10;99.90
6110;DHT22;3085;49.444;11.054;2024-03-06T12:14:06;10.00;99.90
6110;DHT22;3085;49.444;11.054;2024-03-06T12:16:35;10.10;99.90
6110;DHT22;3085;49.444;11.054;2024-03-06T12:19:03;10.10;99.90
6110;DHT22;3085;49.444;11.054;2024-03-06T12:21:31;10.10;99.90
6110;DHT22;3085;49.444;11.054;2024-03-06T12:24:05;10.00;99.90
6110;DHT22;3085;49.444;11.054;2024-03-06T12:26:32;10.10;99.90
6110;DHT22;3085;49.444;11.054;2024-03-06T12:29:06;10.10;99.90
6110;DHT22;3085;49.444;11.054;2024-03-06T12:31:32;10.10;99.90
6110;DHT22;3085;49.444;11.054;2024-03-06T12:33:59;10.10;99.90
6110;DHT22;3085;49.444;11.054;2024-03-06T12:36:29;10.10;99.90
6110;DHT22;3085;49.444;11.054;2024-03-06T12:38:58;10.20;99.90
6110;DHT22;3085;49.444;11.054;2024-03-06T12:41:25;10.20;99.90
6110;DHT22;3085;49.444;11.054;2024-03-06T12:43:53;10.30;99.90
6110;DHT22;3085;49.444;11.054;2024-03-06T12:46:20;10.30;99.90
6110;DHT22;3085;49.444;11.054;2024-03-06T12:48:46;10.20;99.90
6110;DHT22;3085;49.444;11.054;2024-03-06T12:51:13;10.30;99.90
6110;DHT22;3085;49.444;11.054;2024-03-06T12:53:41;10.30;99.90
6110;DHT22;3085;49.444;11.054;2024-03-06T12:56:08;10.40;99.90
6110;DHT22;3085;49.444;11.054;2024-03-06T12:58:35;10.40;99.90
6110;DHT22;3085;49.444;11.054;2024-03-06T13:01:02;10.40;99.90
6110;DHT22;3085;49.444;11.054;2024-03-06T13:03:28;10.50;99.90
6110;DHT22;3085;49.444;11.054;2024-03-06T13:05:56;10.50;99.90
6110;DHT22;3085;49.444;11.054;2024-03-06T13:08:23;10.60;99.90
6110;DHT22;3085;49.444;11.054;2024-03-06T13:10:51;10.60;99.90
6110;DHT22;3085;49.444;11.054;2024-03-06T13:13:18;10.60;99.90
6110;DHT22;3085;49.444;11.054;2024-03-06T13:15:46;10.60;99.90
6110;DHT22;3085;49.444;11.054;2024-03-06T13:18:14;10.70;99.90
6110;DHT22;3085;49.444;11.054;2024-03-06T13:20:41;10.80;99.90
6110;DHT22;3085;49.444;11.054;2024-03-06T13:23:08;10.80;99.90
6110;DHT22;3085;49.444;11.054;2024-03-06T13:25:33;10.90;99.90
6110;DHT22;3085;49.444;11.054;2024-03-06T13:28:02;10.90;99.90
6110;DHT22;3085;49.444;11.054;2024-03-06T13:30:29;10.90;99.90
6110;DHT22;3085;49.444;11.054;2024-03-06T13:32:55;10.90;99.90
6110;DHT22;3085;49.444;11.054;2024-03-06T13:35:22;10.90;99.90
6110;DHT22;3085;49.444;11.054;2024-03-06T13:37:49;10.90;99.90
6110;DHT22;3085;49.444;11.054;2024-03-06T13:40:15;10.80;99.90
6110;DHT22;3085;49.444;11.054;2024-03-06T13:42:43;10.80;99.90
6110;DHT22;3085;49.444;11.054;2024-03-06T13:45:11;10.90;99.90
6110;DHT22;3085;49.444;11.054;2024-03-06T13:47:38;10.80;99.90
6110;DHT22;3085;49.444;11.054;2024-03-06T13:50:07;10.90;99.90
6110;DHT22;3085;49.444;11.054;2024-03-06T13:52:34;10.80;99.90
6110;DHT22;3085;49.444;11.054;2024-03-06T13:55:01;10.80;99.90
6110;DHT22;3085;49.444;11.054;2024-03-06T13:57:30;10.80;99.90
6110;DHT22;3085;49.444;11.054;2024-03-06T13:59:59;10.80;99.90
6110;DHT22;3085;49.444;11.054;2024-03-06T14:02:27;10.80;99.90
6110;DHT22;3085;49.444;11.054;2024-03-06T14:04:53;10.90;99.90
6110;DHT22;3085;49.444;11.054;2024-03-06T14:07:20;10.70;99.90
6110;DHT22;3085;49.444;11.054;2024-03-06T14:09:47;10.80;99.90
6110;DHT22;3085;49.444;11.054;2024-03-06T14:12:14;10.70;99.90
6110;DHT22;3085;49.444;11.054;2024-03-06T14:14:41;10.70;99.90
6110;DHT22;3085;49.444;11.054;2024-03-06T14:17:11;10.70;99.90
6110;DHT22;3085;49.444;11.054;2024-03-06T14:19:40;10.80;99.90
6110;DHT22;3085;49.444;11.054;2024-03-06T14:22:07;10.80;99.90
6110;DHT22;3085;49.444;11.054;2024-03-06T14:24:33;10.70;99.90
6110;DHT22;3085;49.444;11.054;2024-03-06T14:27:01;10.70;99.90
6110;DHT22;3085;49.444;11.054;2024-03-06T14:29:28;10.70;99.90
6110;DHT22;3085;49.444;11.054;2024-03-06T14:31:54;10.70;99.90
6110;DHT22;3085;49.444;11.054;2024-03-06T14:34:22;10.70;99.90
6110;DHT22;3085;49.444;11.054;2024-03-06T14:36:51;10.70;99.90
6110;DHT22;3085;49.444;11.054;2024-03-06T14:39:18;10.70;99.90
6110;DHT22;3085;49.444;11.054;2024-03-06T14:41:47;10.80;99.90
6110;DHT22;3085;49.444;11.054;2024-03-06T14:44:14;10.80;99.90
6110;DHT22;3085;49.444;11.054;2024-03-06T14:46:41;10.70;99.90
6110;DHT22;3085;49.444;11.054;2024-03-06T14:49:08;10.70;99.90
6110;DHT22;3085;49.444;11.054;2024-03-06T14:51:35;10.70;99.90
6110;DHT22;3085;49.444;11.054;2024-03-06T14:54:04;10.70;99.90
6110;DHT22;3085;49.444;11.054;2024-03-06T14:56:32;10.80;99.90
6110;DHT22;3085;49.444;11.054;2024-03-06T14:58:58;10.80;99.90
6110;DHT22;3085;49.444;11.054;2024-03-06T15:01:27;10.80;99.90
6110;DHT22;3085;49.444;11.054;2024-03-06T15:03:56;10.70;99.90
6110;DHT22;3085;49.444;11.054;2024-03-06T15:06:23;10.60;99.90
6110;DHT22;3085;49.444;11.054;2024-03-06T15:08:50;10.50;99.90
6110;DHT22;3085;49.444;11.054;2024-03-06T15:11:19;10.60;99.90
6110;DHT22;3085;49.444;11.054;2024-03-06T15:13:47;10.60;99.90
6110;DHT22;3085;49.444;11.054;2024-03-06T15:16:13;10.60;99.90
6110;DHT22;3085;49.444;11.054;2024-03-06T15:18:40;10.60;99.90
6110;DHT22;3085;49.444;11.054;2024-03-06T15:21:07;10.60;99.90
6110;DHT22;3085;49.444;11.054;2024-03-06T15:23:34;10.60;99.90
6110;DHT22;3085;49.444;11.054;2024-03-06T15:26:01;10.60;99.90
6110;DHT22;3085;49.444;11.054;2024-03-06T15:28:29;10.60;99.90
6110;DHT22;3085;49.444;11.054;2024-03-06T15:30:56;10.70;99.90
6110;DHT22;3085;49.444;11.054;2024-03-06T15:33:22;10.70;99.90
6110;DHT22;3085;49.444;11.054;2024-03-06T15:35:50;10.70;99.90
6110;DHT22;3085;49.444;11.054;2024-03-06T15:38:16;10.70;99.90
6110;DHT22;3085;49.444;11.054;2024-03-06T15:40:43;10.70;99.90
6110;DHT22;3085;49.444;11.054;2024-03-06T15:43:12;10.70;99.90
6110;DHT22;3085;49.444;11.054;2024-03-06T15:45:40;10.70;99.90
6110;DHT22;3085;49.444;11.054;2024-03-06T15:48:06;10.70;99.90
6110;DHT22;3085;49.444;11.054;2024-03-06T15:50:35;10.70;99.90
6110;DHT22;3085;49.444;11.054;2024-03-06T15:53:02;10.60;99.90
6110;DHT22;3085;49.444;11.054;2024-03-06T15:55:29;10.60;99.90
6110;DHT22;3085;49.444;11.054;2024-03-06T15:57:56;10.70;99.90
6110;DHT22;3085;49.444;11.054;2024-03-06T16:00:23;10.70;99.90